Time;durP1;ratioP1;P1;durP2;ratioP2;P2;SDS_P1;SDS_P2;PMS_P1;PMS_P2;Temp;Humidity;BMP_temperature;BMP_pressure;BME280_temperature;BME280_humidity;BME280_pressure;Samples;Min_cycle;Max_cycle;Signal;HPM_P1;HPM_P2
2023/03/11 00:01:06;;;;;;;0.88;0.68;;;;;;;12.52;52.15;97440.06;4495169;31;33609;-70
2023/03/11 00:03:34;;;;;;;1.58;0.80;;;;;;;11.84;53.93;97439.13;4494008;31;32380;-69
2023/03/11 00:06:01;;;;;;;0.80;0.57;;;;;;;11.89;53.94;97431.41;4490912;31;34723;-71
2023/03/11 00:08:29;;;;;;;0.50;0.50;;;;;;;12.03;53.18;97415.53;4492416;31;35245;-72
2023/03/11 00:10:59;;;;;;;0.73;0.50;;;;;;;12.23;52.81;97415.84;4493397;31;33501;-69
2023/03/11 00:13:29;;;;;;;0.68;0.68;;;;;;;11.90;52.81;97421.50;4490422;31;33237;-68
2023/03/11 00:15:56;;;;;;;0.50;0.50;;;;;;;11.88;52.83;97427.06;4491973;31;34907;-71
2023/03/11 00:18:26;;;;;;;0.93;0.77;;;;;;;11.80;53.17;97431.59;4497683;31;34101;-69
2023/03/11 00:20:55;;;;;;;0.70;0.70;;;;;;;11.56;53.45;97424.59;4503581;31;33492;-70
2023/03/11 00:23:23;;;;;;;0.62;0.60;;;;;;;11.49;53.05;97419.06;4503543;31;34118;-69
2023/03/11 00:25:51;;;;;;;0.77;0.68;;;;;;;11.47;53.27;97428.31;4496268;31;33726;-68
2023/03/11 00:28:21;;;;;;;0.50;0.50;;;;;;;11.64;52.89;97417.31;4496027;31;34815;-67
2023/03/11 00:30:48;;;;;;;0.60;0.60;;;;;;;11.41;52.78;97428.00;4499605;31;33614;-69
2023/03/11 00:33:16;;;;;;;1.05;0.70;;;;;;;11.39;52.21;97421.97;4497318;31;34695;-69
2023/03/11 00:35:43;;;;;;;0.57;0.55;;;;;;;11.35;52.90;97427.88;4493797;31;33829;-68
2023/03/11 00:38:15;;;;;;;0.57;0.57;;;;;;;11.54;53.02;97426.59;4510859;31;34754;-69
2023/03/11 00:40:44;;;;;;;1.80;0.75;;;;;;;11.39;52.76;97430.00;4499888;31;34433;-70
2023/03/11 00:43:12;;;;;;;0.70;0.70;;;;;;;11.24;53.08;97428.28;4496125;31;33222;-68
2023/03/11 00:45:40;;;;;;;2.12;0.77;;;;;;;11.05;53.08;97438.41;4498715;31;32686;-69
2023/03/11 00:48:08;;;;;;;1.25;0.73;;;;;;;11.64;51.13;97436.06;4499040;31;33730;-67
2023/03/11 00:50:36;;;;;;;1.90;0.60;;;;;;;11.71;51.01;97436.19;4498606;31;35187;-67
2023/03/11 00:53:05;;;;;;;1.37;0.73;;;;;;;11.63;50.56;97442.44;4499804;31;34574;-67
2023/03/11 00:55:34;;;;;;;1.12;0.73;;;;;;;11.81;50.27;97449.34;4499259;31;33798;-68
2023/03/11 00:58:04;;;;;;;1.60;0.80;;;;;;;11.09;51.74;97455.78;4512363;31;34986;-68
2023/03/11 01:00:32;;;;;;;1.35;1.25;;;;;;;11.46;50.55;97465.00;4498107;31;33115;-67
2023/03/11 01:03:01;;;;;;;1.85;1.20;;;;;;;11.51;49.39;97451.88;4487497;31;34431;-68
2023/03/11 01:05:31;;;;;;;1.12;0.70;;;;;;;11.52;49.72;97444.69;4495274;31;33737;-68
2023/03/11 01:07:59;;;;;;;4.68;1.05;;;;;;;11.14;50.18;97450.75;4501501;31;33862;-68
2023/03/11 01:10:28;;;;;;;1.85;0.88;;;;;;;11.51;49.85;97457.25;4500564;31;33702;-69
2023/03/11 01:12:55;;;;;;;0.60;0.60;;;;;;;11.31;50.05;97454.16;4503168;31;33242;-69
2023/03/11 01:15:30;;;;;;;1.17;0.75;;;;;;;11.18;50.13;97438.66;4499600;31;32570;-70
2023/03/11 01:17:59;;;;;;;0.90;0.60;;;;;;;11.11;50.04;97447.59;4493566;31;33914;-68
2023/03/11 01:20:26;;;;;;;5.35;0.85;;;;;;;11.06;49.81;97441.91;4499069;31;33816;-69
2023/03/11 01:22:54;;;;;;;2.45;0.88;;;;;;;11.20;50.07;97443.84;4508596;31;32956;-70
2023/03/11 01:25:23;;;;;;;0.82;0.82;;;;;;;11.43;49.67;97443.91;4498448;31;35018;-68
2023/03/11 01:27:50;;;;;;;1.65;0.95;;;;;;;11.35;49.71;97435.91;4483376;31;33861;-70
2023/03/11 01:30:21;;;;;;;0.82;0.60;;;;;;;11.25;49.89;97437.97;4509201;31;33561;-69
2023/03/11 01:32:51;;;;;;;10.20;1.02;;;;;;;11.32;50.15;97434.41;4504368;31;32122;-69
2023/03/11 01:35:20;;;;;;;1.65;0.93;;;;;;;11.13;50.35;97438.34;4487697;31;33708;-70
2023/03/11 01:37:48;;;;;;;2.60;0.90;;;;;;;11.59;49.52;97448.34;4502809;31;34879;-69
2023/03/11 01:40:19;;;;;;;1.35;1.00;;;;;;;11.65;49.35;97440.44;4510374;31;32484;-71
2023/03/11 01:42:47;;;;;;;1.10;0.95;;;;;;;11.88;49.03;97440.47;4497923;31;33063;-70
2023/03/11 01:45:33;;;;;;;1.95;0.80;;;;;;;12.16;48.06;97433.69;4499970;31;34405;-70
2023/03/11 01:48:00;;;;;;;2.28;1.12;;;;;;;11.64;49.53;97433.37;4499165;31;35243;-71
2023/03/11 01:50:33;;;;;;;1.27;1.05;;;;;;;11.99;48.40;97430.31;4493211;31;32528;-70
2023/03/11 01:53:02;;;;;;;2.78;1.45;;;;;;;11.76;48.63;97436.50;4484299;31;33326;-70
2023/03/11 01:55:30;;;;;;;1.87;1.00;;;;;;;12.00;48.81;97437.34;4492366;31;34845;-69
2023/03/11 01:58:02;;;;;;;2.40;0.93;;;;;;;12.36;47.77;97445.59;4504836;31;33934;-70
2023/03/11 02:00:30;;;;;;;1.67;0.90;;;;;;;12.19;47.81;97436.84;4506064;31;34447;-69
2023/03/11 02:02:59;;;;;;;2.37;0.88;;;;;;;11.63;49.27;97441.59;4500248;31;32137;-70
2023/03/11 02:05:27;;;;;;;0.60;0.60;;;;;;;11.46;49.54;97440.03;4474916;31;33730;-69
2023/03/11 02:07:55;;;;;;;1.00;0.75;;;;;;;11.77;48.24;97438.16;4498531;31;33812;-70
2023/03/11 02:10:23;;;;;;;1.45;0.73;;;;;;;11.07;49.83;97447.06;4513901;31;33795;-70
2023/03/11 02:12:51;;;;;;;1.30;1.00;;;;;;;11.87;48.23;97449.50;4504989;31;33660;-71
2023/03/11 02:15:23;;;;;;;4.80;1.20;;;;;;;11.22;49.74;97441.84;4498210;31;32726;-68
2023/03/11 02:17:51;;;;;;;1.08;0.75;;;;;;;11.54;49.53;97445.34;4498740;31;35070;-70
2023/03/11 02:20:34;;;;;;;0.73;0.70;;;;;;;11.61;49.13;97439.09;4496382;31;33404;-69
2023/03/11 02:23:02;;;;;;;2.58;0.98;;;;;;;11.63;48.73;97441.59;4480335;31;34589;-70
2023/03/11 02:25:33;;;;;;;1.62;0.70;;;;;;;11.12;50.33;97435.88;4497455;31;35059;-69
2023/03/11 02:28:04;;;;;;;2.05;1.02;;;;;;;11.39;49.31;97424.66;4498969;31;34139;-68
2023/03/11 02:30:33;;;;;;;2.53;1.00;;;;;;;11.26;50.01;97443.13;4483932;31;34671;-70
2023/03/11 02:33:01;;;;;;;2.42;1.00;;;;;;;11.69;48.39;97432.03;4499062;31;33359;-70
2023/03/11 02:35:30;;;;;;;0.93;0.73;;;;;;;11.69;47.97;97432.87;4501280;31;34027;-70
2023/03/11 02:37:58;;;;;;;3.12;1.10;;;;;;;11.36;48.39;97437.56;4504996;31;34963;-69
2023/03/11 02:40:28;;;;;;;1.95;1.05;;;;;;;11.09;48.74;97438.88;4507490;31;34786;-68
2023/03/11 02:42:58;;;;;;;2.05;1.00;;;;;;;11.42;47.93;97443.06;4504033;31;34384;-69
2023/03/11 02:45:28;;;;;;;0.70;0.70;;;;;;;11.19;48.24;97440.31;4496176;31;34888;-69
2023/03/11 02:47:57;;;;;;;1.40;0.80;;;;;;;11.03;48.13;97450.28;4480423;31;34816;-71
2023/03/11 02:50:25;;;;;;;1.70;1.02;;;;;;;11.39;48.30;97442.56;4483907;31;33796;-69
2023/03/11 02:52:54;;;;;;;0.75;0.75;;;;;;;11.57;47.17;97443.13;4498508;31;32848;-69
2023/03/11 02:55:22;;;;;;;3.10;0.93;;;;;;;11.48;46.47;97449.56;4500289;31;33149;-69
2023/03/11 02:57:49;;;;;;;2.30;0.88;;;;;;;11.40;46.92;97458.47;4501151;31;36207;-69
2023/03/11 03:00:18;;;;;;;0.75;0.75;;;;;;;11.37;46.04;97464.19;4499271;31;33801;-69
2023/03/11 03:02:50;;;;;;;3.62;0.80;;;;;;;11.03;47.20;97461.81;4498823;31;33055;-70
2023/03/11 03:05:19;;;;;;;1.80;1.10;;;;;;;11.21;46.49;97460.75;4497165;31;32605;-69
2023/03/11 03:07:48;;;;;;;3.58;1.20;;;;;;;10.92;46.26;97463.03;4491658;31;33601;-68
2023/03/11 03:10:18;;;;;;;0.90;0.70;;;;;;;10.82;47.29;97469.56;4513354;31;34380;-69
2023/03/11 03:12:46;;;;;;;2.05;1.15;;;;;;;10.53;47.18;97468.34;4501406;31;33501;-70
2023/03/11 03:15:14;;;;;;;1.30;0.90;;;;;;;10.80;46.51;97480.47;4495759;31;33223;-69
2023/03/11 03:17:43;;;;;;;1.12;0.70;;;;;;;10.84;45.83;97492.50;4499246;31;33754;-71
2023/03/11 03:20:12;;;;;;;2.00;1.23;;;;;;;10.89;45.49;97481.28;4497813;31;32679;-68
2023/03/11 03:22:41;;;;;;;2.85;1.33;;;;;;;10.93;44.95;97488.78;4499623;31;33169;-70
2023/03/11 03:25:09;;;;;;;0.80;0.80;;;;;;;10.86;44.60;97482.47;4506975;31;33843;-69
2023/03/11 03:27:37;;;;;;;1.85;0.85;;;;;;;10.59;44.16;97480.16;4498782;31;35022;-69
2023/03/11 03:30:05;;;;;;;2.47;1.33;;;;;;;10.74;43.90;97491.84;4494947;31;34955;-70
2023/03/11 03:32:33;;;;;;;2.58;0.90;;;;;;;10.22;44.23;97469.00;4505040;31;33808;-68
2023/03/11 03:35:02;;;;;;;1.48;1.00;;;;;;;10.13;43.30;97494.03;4497501;31;33586;-71
2023/03/11 03:37:35;;;;;;;0.60;0.60;;;;;;;9.95;42.40;97488.00;4504071;31;33871;-68
2023/03/11 03:40:07;;;;;;;1.10;0.82;;;;;;;9.82;43.05;97477.81;4498492;31;33603;-69
2023/03/11 03:42:35;;;;;;;0.52;0.52;;;;;;;10.12;41.78;97475.50;4498301;31;32778;-70
2023/03/11 03:45:06;;;;;;;0.70;0.70;;;;;;;9.79;43.09;97476.34;4496591;31;34996;-71
2023/03/11 03:47:34;;;;;;;0.73;0.73;;;;;;;9.97;42.54;97481.50;4498973;31;33767;-69
2023/03/11 03:50:07;;;;;;;0.60;0.60;;;;;;;9.89;42.74;97483.34;4502466;31;33845;-69
2023/03/11 03:52:36;;;;;;;0.80;0.80;;;;;;;10.42;41.46;97490.88;4506191;31;31885;-71
2023/03/11 03:55:04;;;;;;;0.68;0.68;;;;;;;10.12;42.29;97483.53;4501267;31;33688;-69
2023/03/11 03:57:32;;;;;;;0.73;0.73;;;;;;;9.83;43.45;97482.19;4495837;31;34894;-69
2023/03/11 04:00:00;;;;;;;1.58;1.05;;;;;;;9.78;42.96;97495.19;4491200;31;32496;-71
2023/03/11 04:02:27;;;;;;;1.75;0.95;;;;;;;9.89;43.91;97494.88;4497182;31;33049;-68
2023/03/11 04:04:56;;;;;;;0.52;0.52;;;;;;;9.98;42.63;97488.53;4495788;31;33345;-68
2023/03/11 04:07:23;;;;;;;0.90;0.62;;;;;;;9.70;43.37;97501.34;4493485;31;35262;-70
2023/03/11 04:09:51;;;;;;;1.95;1.08;;;;;;;9.56;43.74;97494.78;4492050;31;33930;-70
2023/03/11 04:12:18;;;;;;;0.77;0.77;;;;;;;9.54;43.28;97496.81;4496843;31;31233;-69
2023/03/11 04:14:46;;;;;;;1.50;1.40;;;;;;;9.61;44.23;97501.50;4501777;31;33714;-69
2023/03/11 04:17:13;;;;;;;1.02;0.60;;;;;;;10.05;42.80;97510.09;4506907;31;33855;-68
2023/03/11 04:19:41;;;;;;;1.45;0.75;;;;;;;9.40;42.53;97518.78;4502728;31;33641;-70
2023/03/11 04:22:09;;;;;;;0.82;0.82;;;;;;;9.08;41.37;97511.47;4501433;31;33065;-70
2023/03/11 04:24:37;;;;;;;1.52;0.98;;;;;;;9.25;41.27;97531.09;4504438;31;34658;-69
2023/03/11 04:27:05;;;;;;;0.73;0.73;;;;;;;9.02;40.61;97520.09;4499610;31;35280;-70
2023/03/11 04:29:32;;;;;;;0.62;0.62;;;;;;;9.40;39.68;97525.97;4497961;31;33539;-70
2023/03/11 04:32:01;;;;;;;0.70;0.70;;;;;;;9.01;39.38;97519.28;4501984;31;33320;-70
2023/03/11 04:34:29;;;;;;;6.32;0.98;;;;;;;9.00;39.27;97506.94;4501777;31;34617;-70
2023/03/11 04:36:57;;;;;;;0.80;0.80;;;;;;;8.65;38.88;97513.25;4500770;31;34077;-69
2023/03/11 04:39:25;;;;;;;0.85;0.70;;;;;;;8.83;38.73;97519.38;4510833;31;34019;-70
2023/03/11 04:41:52;;;;;;;3.22;1.45;;;;;;;8.86;39.24;97524.37;4501762;31;33529;-69
2023/03/11 04:44:20;;;;;;;8.68;1.20;;;;;;;8.63;39.56;97500.09;4497968;31;33607;-70
2023/03/11 04:46:48;;;;;;;10.95;2.12;;;;;;;8.90;37.97;97500.06;4511751;31;34076;-69
2023/03/11 04:49:16;;;;;;;3.22;0.90;;;;;;;8.25;38.67;97509.28;4502806;31;34666;-70
2023/03/11 04:51:43;;;;;;;5.90;0.93;;;;;;;8.49;37.58;97489.97;4504174;31;34087;-70
2023/03/11 04:54:11;;;;;;;4.47;1.20;;;;;;;8.50;36.69;97493.47;4499660;31;33746;-71
2023/03/11 04:56:39;;;;;;;3.95;1.05;;;;;;;8.59;36.35;97508.53;4498019;31;35031;-69
2023/03/11 04:59:06;;;;;;;3.65;1.15;;;;;;;8.47;36.34;97515.94;4493581;31;33666;-69
2023/03/11 05:01:34;;;;;;;14.45;1.15;;;;;;;8.37;35.96;97508.00;4497575;31;32048;-71
2023/03/11 05:04:02;;;;;;;11.25;2.33;;;;;;;8.05;36.49;97503.25;4498274;31;34076;-69
2023/03/11 05:06:30;;;;;;;9.75;0.98;;;;;;;8.42;37.18;97506.75;4499574;31;34958;-68
2023/03/11 05:08:59;;;;;;;7.53;1.15;;;;;;;8.17;37.93;97495.88;4499681;31;34792;-67
2023/03/11 05:11:27;;;;;;;6.00;1.15;;;;;;;8.21;37.85;97501.72;4500665;31;33147;-67
2023/03/11 05:13:54;;;;;;;11.15;3.20;;;;;;;7.87;38.47;97484.63;4500721;31;33582;-68
2023/03/11 05:16:22;;;;;;;12.30;3.28;;;;;;;7.75;40.21;97524.97;4496466;31;33716;-69
2023/03/11 05:18:50;;;;;;;4.68;1.58;;;;;;;7.91;39.35;97528.62;4500202;31;33926;-68
2023/03/11 05:21:17;;;;;;;6.60;2.35;;;;;;;7.93;39.42;97509.84;4504350;31;34428;-70
2023/03/11 05:23:44;;;;;;;10.95;3.15;;;;;;;7.74;39.43;97534.78;4503882;31;33580;-69
2023/03/11 05:26:12;;;;;;;9.32;1.95;;;;;;;7.80;39.79;97531.53;4498047;31;35481;-69
2023/03/11 05:28:40;;;;;;;4.03;1.15;;;;;;;7.69;39.76;97550.34;4498424;31;34118;-68
2023/03/11 05:31:09;;;;;;;11.75;2.67;;;;;;;7.51;40.91;97541.50;4491488;31;34149;-67
2023/03/11 05:33:37;;;;;;;3.67;1.33;;;;;;;7.64;40.45;97555.28;4500169;31;33507;-68
2023/03/11 05:36:09;;;;;;;3.30;1.85;;;;;;;7.35;40.87;97552.78;4500395;31;34788;-67
2023/03/11 05:38:37;;;;;;;3.60;1.30;;;;;;;7.74;40.55;97563.22;4489433;31;34469;-68
2023/03/11 05:41:05;;;;;;;12.95;1.95;;;;;;;7.97;40.22;97569.81;4499927;31;32034;-68
2023/03/11 05:43:33;;;;;;;5.72;1.00;;;;;;;7.44;41.55;97576.69;4501259;31;33898;-68
2023/03/11 05:46:02;;;;;;;3.40;1.35;;;;;;;7.67;40.27;97585.13;4499188;31;32489;-69
2023/03/11 05:48:30;;;;;;;4.70;0.95;;;;;;;7.84;40.13;97598.63;4498663;31;33832;-71
2023/03/11 05:50:58;;;;;;;17.17;1.33;;;;;;;8.20;38.86;97598.66;4498964;31;33242;-69
2023/03/11 05:53:26;;;;;;;1.33;0.95;;;;;;;7.85;39.52;97587.81;4494784;31;33882;-68
2023/03/11 05:55:58;;;;;;;1.23;0.80;;;;;;;7.75;39.62;97597.69;4498878;31;35186;-67
2023/03/11 05:58:27;;;;;;;2.20;1.40;;;;;;;7.46;39.64;97580.06;4502525;31;33369;-68
2023/03/11 06:00:55;;;;;;;1.45;0.77;;;;;;;7.58;39.62;97580.69;4498517;31;33443;-70
2023/03/11 06:03:23;;;;;;;1.70;0.82;;;;;;;7.64;40.02;97574.78;4502389;31;34807;-69
2023/03/11 06:05:51;;;;;;;5.20;1.58;;;;;;;7.40;40.24;97598.44;4493154;31;33472;-67
2023/03/11 06:08:20;;;;;;;5.70;1.85;;;;;;;6.99;40.96;97592.56;4509062;31;34831;-67
2023/03/11 06:10:48;;;;;;;1.20;1.10;;;;;;;7.68;41.72;97607.28;4498509;31;33583;-71
2023/03/11 06:13:16;;;;;;;1.23;1.05;;;;;;;7.47;40.32;97588.88;4510198;31;33576;-67
2023/03/11 06:15:45;;;;;;;1.33;1.23;;;;;;;7.79;39.40;97607.06;4498916;31;33835;-67
2023/03/11 06:18:13;;;;;;;1.15;0.90;;;;;;;6.95;42.10;97623.09;4497500;31;32550;-68
2023/03/11 06:20:40;;;;;;;0.60;0.60;;;;;;;7.21;40.75;97610.84;4498310;31;33526;-67
2023/03/11 06:23:08;;;;;;;0.70;0.70;;;;;;;7.36;40.88;97642.31;4511444;31;33662;-67
2023/03/11 06:25:35;;;;;;;0.70;0.70;;;;;;;7.28;39.94;97637.69;4499074;31;34009;-69
2023/03/11 06:28:03;;;;;;;2.90;1.70;;;;;;;7.18;39.53;97640.38;4501231;31;34942;-67
2023/03/11 06:30:30;;;;;;;4.95;1.50;;;;;;;7.42;40.53;97647.06;4504875;31;33284;-67
2023/03/11 06:32:59;;;;;;;0.88;0.77;;;;;;;7.46;40.05;97669.72;4500021;31;33409;-68
2023/03/11 06:35:26;;;;;;;0.98;0.90;;;;;;;7.54;38.97;97658.34;4496761;31;34044;-68
2023/03/11 06:37:54;;;;;;;0.95;0.88;;;;;;;7.27;39.61;97681.25;4499242;31;32690;-69
2023/03/11 06:40:22;;;;;;;0.73;0.73;;;;;;;7.40;39.38;97695.09;4498244;31;32030;-68
2023/03/11 06:42:49;;;;;;;2.50;1.33;;;;;;;7.47;39.67;97700.66;4497303;31;33434;-68
2023/03/11 06:45:17;;;;;;;6.03;1.10;;;;;;;7.21;39.69;97701.28;4514527;31;35008;-69
2023/03/11 06:47:47;;;;;;;6.03;0.82;;;;;;;7.71;38.81;97726.81;4499984;31;32843;-68
2023/03/11 06:50:15;;;;;;;0.80;0.80;;;;;;;7.52;39.77;97706.41;4486677;31;33788;-68
2023/03/11 06:52:43;;;;;;;0.70;0.70;;;;;;;7.77;39.75;97712.91;4498080;31;33451;-68
2023/03/11 06:55:10;;;;;;;1.10;0.98;;;;;;;7.62;38.28;97719.69;4506003;31;33885;-69
2023/03/11 06:57:38;;;;;;;1.37;1.10;;;;;;;7.09;39.10;97723.72;4493351;31;34332;-69
2023/03/11 07:00:10;;;;;;;1.00;0.80;;;;;;;7.52;37.58;97709.06;4506217;31;34535;-68
2023/03/11 07:02:39;;;;;;;2.12;1.25;;;;;;;7.43;37.17;97723.25;4504781;31;35074;-69
2023/03/11 07:05:07;;;;;;;0.80;0.80;;;;;;;7.54;36.99;97709.75;4496020;31;33980;-69
2023/03/11 07:07:35;;;;;;;1.17;0.85;;;;;;;7.96;37.88;97725.31;4504458;31;34706;-69
2023/03/11 07:10:04;;;;;;;1.10;0.95;;;;;;;8.48;35.92;97714.09;4497403;31;34311;-71
2023/03/11 07:12:31;;;;;;;1.87;0.88;;;;;;;8.61;35.68;97734.06;4492829;31;33354;-70
2023/03/11 07:14:59;;;;;;;1.23;1.00;;;;;;;8.29;35.91;97712.34;4489599;31;34090;-69
2023/03/11 07:17:27;;;;;;;0.93;0.82;;;;;;;7.97;36.39;97734.12;4497844;31;33625;-69
2023/03/11 07:19:55;;;;;;;0.93;0.80;;;;;;;8.30;36.17;97730.00;4501564;31;33269;-70
2023/03/11 07:22:22;;;;;;;0.77;0.77;;;;;;;8.06;37.17;97726.09;4494049;31;35198;-69
2023/03/11 07:24:50;;;;;;;1.52;1.08;;;;;;;8.47;37.10;97747.88;4498465;31;33973;-70
2023/03/11 07:27:18;;;;;;;0.95;0.88;;;;;;;7.84;36.56;97729.13;4496885;31;33497;-68
2023/03/11 07:29:46;;;;;;;0.70;0.70;;;;;;;8.08;35.14;97728.59;4503415;31;33755;-69
2023/03/11 07:32:13;;;;;;;0.70;0.70;;;;;;;7.53;36.71;97702.75;4496891;31;33522;-69
2023/03/11 07:34:41;;;;;;;0.82;0.82;;;;;;;7.88;35.54;97725.19;4505834;31;34943;-68
2023/03/11 07:37:09;;;;;;;0.80;0.80;;;;;;;8.22;36.76;97730.78;4498294;31;34637;-70
2023/03/11 07:39:38;;;;;;;0.75;0.73;;;;;;;8.80;33.64;97711.75;4494014;31;34539;-68
2023/03/11 07:42:05;;;;;;;1.08;0.80;;;;;;;9.16;33.97;97726.88;4491578;31;33682;-70
2023/03/11 07:44:33;;;;;;;0.98;0.70;;;;;;;9.15;33.35;97717.16;4498132;31;34232;-69
2023/03/11 07:47:04;;;;;;;0.70;0.70;;;;;;;8.55;35.23;97723.16;4497547;31;35460;-69
2023/03/11 07:49:32;;;;;;;1.10;0.88;;;;;;;8.13;34.89;97713.00;4504598;31;33367;-70
2023/03/11 07:52:00;;;;;;;1.20;0.98;;;;;;;7.87;35.63;97710.19;4497183;31;33608;-69
2023/03/11 07:54:27;;;;;;;1.95;1.17;;;;;;;7.22;36.53;97724.28;4502148;31;33849;-69
2023/03/11 07:56:55;;;;;;;3.30;1.02;;;;;;;7.53;36.28;97734.69;4498434;31;34057;-71
2023/03/11 07:59:22;;;;;;;5.47;1.40;;;;;;;7.43;37.53;97716.09;4497604;31;34237;-69
2023/03/11 08:01:50;;;;;;;0.80;0.80;;;;;;;7.93;35.33;97712.28;4493176;31;34724;-68
2023/03/11 08:04:18;;;;;;;0.82;0.82;;;;;;;7.52;36.78;97724.22;4497259;31;34146;-69
2023/03/11 08:06:46;;;;;;;0.70;0.70;;;;;;;7.42;35.97;97689.63;4497494;31;34805;-70
2023/03/11 08:09:14;;;;;;;0.85;0.85;;;;;;;7.38;36.63;97688.22;4497034;31;34215;-70
2023/03/11 08:11:42;;;;;;;1.37;0.80;;;;;;;7.92;35.58;97706.09;4495035;31;33844;-71
2023/03/11 08:14:09;;;;;;;13.15;1.25;;;;;;;8.26;35.01;97697.50;4497450;31;33696;-68
2023/03/11 08:16:38;;;;;;;1.15;0.98;;;;;;;8.65;34.25;97728.41;4491470;31;33744;-69
2023/03/11 08:19:06;;;;;;;1.05;0.93;;;;;;;7.66;35.11;97747.69;4497983;31;34139;-69
2023/03/11 08:21:34;;;;;;;2.15;0.90;;;;;;;7.70;35.27;97792.53;4500536;31;33786;-69
2023/03/11 08:24:01;;;;;;;10.25;1.27;;;;;;;8.19;35.09;97749.72;4497966;31;33672;-71
2023/03/11 08:26:32;;;;;;;3.85;0.95;;;;;;;8.57;34.70;97751.34;4494520;31;33411;-69
2023/03/11 08:29:00;;;;;;;1.60;1.20;;;;;;;8.83;34.08;97721.28;4495188;31;33296;-70
2023/03/11 08:31:29;;;;;;;1.62;0.93;;;;;;;8.37;35.03;97707.09;4500613;31;34239;-69
2023/03/11 08:34:00;;;;;;;7.60;1.08;;;;;;;8.22;34.48;97696.12;4497583;31;33065;-69
2023/03/11 08:36:28;;;;;;;1.67;1.02;;;;;;;8.28;34.21;97673.34;4486304;31;35060;-69
2023/03/11 08:38:56;;;;;;;1.05;0.85;;;;;;;8.62;34.00;97668.22;4480639;31;33209;-69
2023/03/11 08:41:24;;;;;;;1.45;1.10;;;;;;;8.52;34.30;97648.81;4498699;31;33666;-70
2023/03/11 08:43:52;;;;;;;3.92;1.55;;;;;;;8.74;33.88;97653.66;4495006;31;35086;-68
2023/03/11 08:46:32;;;;;;;3.05;1.00;;;;;;;9.08;33.50;97660.91;4491998;31;33235;-68
2023/03/11 08:48:59;;;;;;;4.95;0.88;;;;;;;9.23;34.18;97691.37;4485459;31;32265;-69
2023/03/11 08:51:29;;;;;;;2.28;1.10;;;;;;;9.13;33.48;97704.00;4497723;31;34273;-70
2023/03/11 08:53:57;;;;;;;1.58;0.70;;;;;;;8.85;33.22;97690.75;4498361;31;33851;-70
2023/03/11 08:56:25;;;;;;;2.50;1.20;;;;;;;8.82;33.41;97719.56;4492264;31;33453;-71
2023/03/11 08:58:53;;;;;;;0.88;0.88;;;;;;;9.39;32.64;97719.19;4496261;31;31451;-70
2023/03/11 09:01:21;;;;;;;1.05;0.95;;;;;;;9.55;33.17;97732.66;4496385;31;33317;-68
2023/03/11 09:03:49;;;;;;;1.65;1.08;;;;;;;9.43;33.28;97725.88;4499268;31;33575;-69
2023/03/11 09:06:17;;;;;;;1.85;1.40;;;;;;;9.24;33.78;97737.59;4490732;31;32395;-69
2023/03/11 09:08:45;;;;;;;4.12;1.17;;;;;;;9.18;33.10;97754.22;4490812;31;33319;-69
2023/03/11 09:11:15;;;;;;;3.92;0.85;;;;;;;9.28;32.91;97757.69;4492126;31;33735;-70
2023/03/11 09:13:42;;;;;;;2.20;1.25;;;;;;;9.41;33.72;97767.94;4493700;31;32810;-70
2023/03/11 09:16:14;;;;;;;2.53;1.42;;;;;;;8.88;33.92;97792.81;4502871;31;33660;-69
2023/03/11 09:18:42;;;;;;;2.20;1.02;;;;;;;9.03;33.73;97786.81;4488641;31;34685;-68
2023/03/11 09:21:10;;;;;;;1.15;0.88;;;;;;;8.70;34.87;97801.66;4495448;31;34086;-69
2023/03/11 09:23:38;;;;;;;1.35;1.10;;;;;;;8.48;34.85;97800.25;4499840;31;34525;-69
2023/03/11 09:26:09;;;;;;;6.82;1.77;;;;;;;8.00;36.00;97819.91;4498708;31;34851;-68
2023/03/11 09:28:36;;;;;;;4.80;1.23;;;;;;;7.63;36.34;97811.88;4489662;31;32996;-68
2023/03/11 09:31:04;;;;;;;0.98;0.90;;;;;;;7.74;37.41;97830.38;4497198;31;33831;-69
2023/03/11 09:33:39;;;;;;;4.03;1.67;;;;;;;8.23;35.87;97827.56;4500632;31;33787;-70
2023/03/11 09:36:07;;;;;;;2.75;1.25;;;;;;;8.21;35.72;97819.69;4499824;31;33941;-70
2023/03/11 09:38:34;;;;;;;3.85;1.60;;;;;;;8.35;36.05;97832.56;4495283;31;33431;-70
2023/03/11 09:41:17;;;;;;;2.65;1.23;;;;;;;8.60;35.37;97796.38;4498027;31;32410;-68
2023/03/11 09:44:00;;;;;;;2.10;0.93;;;;;;;7.91;35.44;97834.94;4499623;31;34032;-69
2023/03/11 09:46:46;;;;;;;3.35;1.12;;;;;;;7.75;35.22;97840.03;4499202;31;32443;-69
2023/03/11 09:49:40;;;;;;;1.75;1.08;;;;;;;7.62;36.19;97847.50;4492870;31;34492;-68
2023/03/11 09:52:16;;;;;;;10.45;1.70;;;;;;;7.63;35.79;97849.16;4500859;31;34892;-68
2023/03/11 09:54:52;;;;;;;0.73;0.70;;;;;;;7.77;35.59;97850.53;4483952;31;33962;-68
2023/03/11 09:57:28;;;;;;;1.90;1.73;;;;;;;7.73;35.93;97847.31;4496840;31;33560;-70
2023/03/11 09:59:57;;;;;;;1.30;0.77;;;;;;;8.07;35.12;97821.00;4483532;31;32827;-69
2023/03/11 10:02:25;;;;;;;1.10;0.88;;;;;;;8.26;35.48;97856.56;4491986;31;34970;-70
2023/03/11 10:05:00;;;;;;;1.08;0.98;;;;;;;8.81;34.59;97853.94;4488214;31;34011;-69
2023/03/11 10:07:37;;;;;;;0.85;0.85;;;;;;;8.20;35.44;97871.31;4480201;31;33766;-68
2023/03/11 10:10:05;;;;;;;1.83;1.05;;;;;;;8.44;34.36;97844.16;4476404;31;32999;-69
2023/03/11 10:12:51;;;;;;;1.23;1.12;;;;;;;8.21;35.22;97849.00;4498162;31;33719;-69
2023/03/11 10:15:22;;;;;;;3.80;0.98;;;;;;;8.35;36.34;97859.22;4479231;31;33883;-69
2023/03/11 10:18:17;;;;;;;0.80;0.70;;;;;;;8.30;35.62;97868.63;4492662;31;33775;-68
2023/03/11 10:21:02;;;;;;;1.02;1.00;;;;;;;8.15;35.37;97862.91;4490656;31;33430;-68
2023/03/11 10:23:49;;;;;;;1.95;0.93;;;;;;;7.69;36.09;97868.06;4497018;31;34096;-68
2023/03/11 10:26:19;;;;;;;9.52;7.00;;;;;;;7.78;36.37;97918.81;4494346;31;34903;-68
2023/03/11 10:29:02;;;;;;;6.45;0.88;;;;;;;8.03;35.18;97907.56;4494082;31;35112;-68
2023/03/11 10:31:34;;;;;;;3.70;1.35;;;;;;;7.69;36.02;97913.34;4481732;31;34339;-69
2023/03/11 10:34:10;;;;;;;1.75;1.33;;;;;;;8.05;36.19;97936.72;4489941;31;32609;-69
2023/03/11 10:37:00;;;;;;;1.55;0.88;;;;;;;7.80;36.95;97956.78;4484229;31;33542;-69
2023/03/11 10:39:29;;;;;;;1.98;1.08;;;;;;;7.22;37.77;97950.44;4491941;31;35042;-67
2023/03/11 10:42:00;;;;;;;2.30;0.85;;;;;;;8.08;37.25;97939.91;4488681;31;32182;-71
2023/03/11 10:44:39;;;;;;;0.70;0.70;;;;;;;7.68;37.10;97948.94;4488511;31;33799;-69
2023/03/11 10:47:14;;;;;;;0.60;0.60;;;;;;;7.85;37.19;97935.91;4493181;31;32841;-71
2023/03/11 10:49:42;;;;;;;0.90;0.80;;;;;;;8.58;36.13;97937.03;4485327;31;34048;-68
2023/03/11 10:52:09;;;;;;;1.50;0.75;;;;;;;8.83;35.94;97934.69;4495299;31;33300;-68
2023/03/11 10:54:42;;;;;;;0.80;0.80;;;;;;;9.04;36.17;97935.25;4493843;31;34734;-69
2023/03/11 10:57:37;;;;;;;2.20;0.88;;;;;;;9.18;36.58;97936.59;4481009;31;34523;-69
2023/03/11 11:00:16;;;;;;;2.17;1.90;;;;;;;9.28;34.89;97942.72;4485109;31;34868;-69
2023/03/11 11:02:56;;;;;;;1.40;0.75;;;;;;;9.64;34.32;97921.38;4477375;31;32071;-69
2023/03/11 11:05:31;;;;;;;3.35;0.88;;;;;;;9.33;35.73;97940.41;4483499;31;32440;-68
2023/03/11 11:08:16;;;;;;;0.85;0.85;;;;;;;9.53;34.70;97932.25;4501696;31;32949;-68
2023/03/11 11:10:52;;;;;;;1.00;0.80;;;;;;;9.93;34.26;97955.00;4485051;31;33415;-68
2023/03/11 11:13:22;;;;;;;4.07;1.33;;;;;;;9.87;33.53;97934.25;4506194;31;34441;-69
2023/03/11 11:16:04;;;;;;;2.17;0.82;;;;;;;9.15;34.72;97962.72;4505454;31;33531;-68
2023/03/11 11:18:46;;;;;;;4.72;1.05;;;;;;;9.32;34.29;97951.25;4473710;31;33745;-69
2023/03/11 11:21:31;;;;;;;5.60;1.08;;;;;;;9.71;34.05;97945.63;4473623;31;33519;-67
2023/03/11 11:24:19;;;;;;;4.18;1.15;;;;;;;9.21;34.42;97964.78;4492800;31;33345;-68
2023/03/11 11:27:17;;;;;;;2.28;0.80;;;;;;;9.28;34.36;97968.56;4490880;31;34049;-70
2023/03/11 11:29:46;;;;;;;1.95;1.20;;;;;;;9.13;35.42;97986.06;4487145;31;34804;-69
2023/03/11 11:32:17;;;;;;;3.60;1.15;;;;;;;8.94;35.40;97957.66;4497163;31;33563;-68
2023/03/11 11:34:58;;;;;;;4.95;1.00;;;;;;;8.78;35.51;97967.13;4499017;31;34466;-69
2023/03/11 11:37:30;;;;;;;2.50;1.08;;;;;;;8.82;35.71;97967.66;4494297;31;35026;-68
2023/03/11 11:40:09;;;;;;;4.22;1.45;;;;;;;8.85;35.59;97981.53;4496360;31;33821;-67
2023/03/11 11:42:39;;;;;;;2.50;0.95;;;;;;;8.65;35.75;97979.09;4495132;31;33803;-70
2023/03/11 11:45:28;;;;;;;2.05;1.25;;;;;;;8.51;35.33;97986.59;4481586;31;33080;-70
2023/03/11 11:47:59;;;;;;;4.18;1.20;;;;;;;8.70;35.26;97987.50;4480980;31;33873;-68
2023/03/11 11:50:34;;;;;;;6.03;0.77;;;;;;;8.66;35.52;97981.63;4480837;31;33861;-67
2023/03/11 11:53:45;;;;;;;1.37;0.95;;;;;;;9.22;34.68;97991.34;4484509;31;34683;-68